Terminal Aerodrome Forecast
Issued by NWS Rapid City, SD

Home | Current Version | Previous Version | Text Only | Print | Product List | Glossary On
Versions: 1 2 3 4 5 6 7 8 9 10 11 12 13
000
FTUS43 KUNR 282300
TAFRAP
TAF
KRAP 282320Z 2900/2924 33028G38KT P6SM BKN150
     FM290100 34020G30KT P6SM SCT008
     FM290300 34018KT P6SM BKN008
     FM291400 34012KT P6SM SCT030=

USA.gov is the U.S. government's official web portal to all federal, state and local government web resources and services.